createdAt,value
2022-09-18T00:00:12.196Z,101671.50
2022-09-18T00:05:18.073Z,101681.16
2022-09-18T00:10:21.180Z,101677.53
2022-09-18T00:15:25.577Z,101661.59
2022-09-18T00:20:28.576Z,101668.25
2022-09-18T00:25:33.130Z,101656.19
2022-09-18T00:30:39.542Z,101668.63
2022-09-18T00:35:44.294Z,101695.09
2022-09-18T00:40:47.281Z,101678.28
2022-09-18T00:45:56.116Z,101684.31
2022-09-18T00:51:01.084Z,101680.78
2022-09-18T00:56:06.130Z,101677.06
2022-09-18T01:01:10.592Z,101671.69
2022-09-18T01:06:17.692Z,101676.81
2022-09-18T01:11:37.707Z,101671.41
2022-09-18T01:16:49.173Z,101655.00
2022-09-18T01:22:02.072Z,101649.06
2022-09-18T01:27:07.337Z,101658.00
2022-09-18T01:32:20.920Z,101665.63
2022-09-18T01:37:31.900Z,101663.91
2022-09-18T01:42:37.663Z,101649.75
2022-09-18T01:47:48.583Z,101647.81
2022-09-18T01:53:00.439Z,101638.06
2022-09-18T01:58:09.238Z,101636.94
2022-09-18T02:03:17.393Z,101632.78
2022-09-18T02:08:25.657Z,101633.66
2022-09-18T02:13:37.953Z,101636.56
2022-09-18T02:18:47.559Z,101641.94
2022-09-18T02:23:52.530Z,101642.56
2022-09-18T02:28:56.237Z,101639.06
2022-09-18T02:34:00.677Z,101640.31
2022-09-18T02:39:15.045Z,101636.22
2022-09-18T02:44:26.534Z,101632.13
2022-09-18T02:49:44.094Z,101630.28
2022-09-18T02:54:50.559Z,101617.66
2022-09-18T02:59:57.687Z,101613.31
2022-09-18T03:05:03.667Z,101619.66
2022-09-18T03:10:26.974Z,101634.81
2022-09-18T03:15:30.014Z,101619.94
2022-09-18T03:20:34.724Z,101618.13
2022-09-18T03:25:41.396Z,101601.31
2022-09-18T03:30:46.050Z,101613.19
2022-09-18T03:35:51.195Z,101603.53
2022-09-18T03:40:54.176Z,101604.84
2022-09-18T03:45:57.530Z,101601.19
2022-09-18T03:51:02.218Z,101594.78
2022-09-18T03:56:05.474Z,101584.16
2022-09-18T04:01:14.661Z,101599.13
2022-09-18T04:06:45.371Z,101595.91
2022-09-18T04:12:07.570Z,101587.03
2022-09-18T04:17:13.516Z,101568.22
2022-09-18T04:22:18.662Z,101580.63
2022-09-18T04:27:22.268Z,101594.41
2022-09-18T04:32:26.763Z,101606.63
2022-09-18T04:37:31.170Z,101608.47
2022-09-18T04:42:36.482Z,101598.63
2022-09-18T04:47:41.547Z,101590.56
2022-09-18T04:52:46.485Z,101582.06
2022-09-18T04:57:54.303Z,101588.25
2022-09-18T05:02:59.235Z,101590.06
2022-09-18T05:08:06.352Z,101592.69
2022-09-18T05:13:12.593Z,101598.13
2022-09-18T05:18:22.680Z,101593.84
2022-09-18T05:23:31.334Z,101597.31
2022-09-18T05:28:34.411Z,101605.22
2022-09-18T05:33:42.175Z,101596.31
2022-09-18T05:38:48.215Z,101587.47
2022-09-18T05:43:51.456Z,101584.84
2022-09-18T05:48:54.841Z,101577.22
2022-09-18T05:53:59.236Z,101566.22
2022-09-18T05:59:12.446Z,101559.94
2022-09-18T06:04:15.798Z,101577.09
2022-09-18T06:09:29.429Z,101604.97
2022-09-18T06:14:32.426Z,101594.00
2022-09-18T06:19:36.514Z,101573.88
2022-09-18T06:24:40.891Z,101568.72
2022-09-18T06:29:47.471Z,101576.00
2022-09-18T06:35:01.290Z,101581.34
2022-09-18T06:40:06.653Z,101578.63
2022-09-18T06:45:31.180Z,101596.41
2022-09-18T06:50:34.429Z,101594.94
2022-09-18T06:55:39.112Z,101567.78
2022-09-18T07:00:42.666Z,101574.16
2022-09-18T07:05:46.716Z,101562.25
2022-09-18T07:11:05.405Z,101570.56
2022-09-18T07:16:10.431Z,101561.34
2022-09-18T07:21:13.474Z,101567.81
2022-09-18T07:26:20.567Z,101570.03
2022-09-18T07:31:24.714Z,101578.06
2022-09-18T07:36:28.048Z,101562.84
2022-09-18T07:41:32.375Z,101566.16
2022-09-18T07:46:36.279Z,101564.34
2022-09-18T07:51:42.234Z,101553.69
2022-09-18T07:56:47.805Z,101550.66
2022-09-18T08:01:55.909Z,101559.41
2022-09-18T08:07:03.957Z,101553.16
2022-09-18T08:12:28.259Z,101556.84
2022-09-18T08:17:54.492Z,101553.81
2022-09-18T08:23:15.292Z,101547.63
2022-09-18T08:28:20.558Z,101556.66
2022-09-18T08:33:31.099Z,101570.69
2022-09-18T08:38:36.707Z,101604.53
2022-09-18T08:44:04.714Z,101591.31
2022-09-18T08:49:23.078Z,101599.09
2022-09-18T08:54:41.084Z,101583.28
2022-09-18T08:59:57.029Z,101590.53
2022-09-18T09:05:04.613Z,101565.16
2022-09-18T09:10:40.541Z,101570.59
2022-09-18T09:15:53.671Z,101555.91
2022-09-18T09:20:59.034Z,101543.00
2022-09-18T09:26:08.755Z,101554.59
2022-09-18T09:31:40.670Z,101549.53
2022-09-18T09:37:04.113Z,101543.84
2022-09-18T09:42:15.895Z,101534.97
2022-09-18T09:47:35.419Z,101542.97
2022-09-18T09:52:41.810Z,101526.59
2022-09-18T09:57:58.175Z,101538.97
2022-09-18T10:03:39.615Z,101576.25
2022-09-18T10:08:50.669Z,101585.88
2022-09-18T10:13:58.186Z,101574.50
2022-09-18T10:19:04.667Z,101568.59
2022-09-18T10:24:26.329Z,101568.56
2022-09-18T10:29:35.894Z,101570.28
2022-09-18T10:34:46.134Z,101568.28
2022-09-18T10:39:53.806Z,101576.19
2022-09-18T10:45:02.366Z,101577.56
2022-09-18T10:50:19.897Z,101574.91
2022-09-18T10:55:27.597Z,101565.25
2022-09-18T11:00:42.611Z,101552.88
2022-09-18T11:05:53.692Z,101549.94
2022-09-18T11:11:03.186Z,101558.84
2022-09-18T11:16:13.572Z,101547.53
2022-09-18T11:21:18.823Z,101567.56
2022-09-18T11:26:31.432Z,101568.84
2022-09-18T11:31:48.830Z,101574.84
2022-09-18T11:37:03.661Z,101579.63
2022-09-18T11:42:12.998Z,101566.88
2022-09-18T11:47:33.617Z,101582.97
2022-09-18T11:52:44.629Z,101590.72
2022-09-18T11:57:53.132Z,101583.13
2022-09-18T12:03:06.912Z,101582.66
2022-09-18T12:08:21.601Z,101567.78
2022-09-18T12:13:40.358Z,101561.94
2022-09-18T12:18:52.349Z,101563.97
2022-09-18T12:23:56.855Z,101565.81
2022-09-18T12:29:17.568Z,101549.97
2022-09-18T12:34:31.421Z,101557.19
2022-09-18T12:40:01.500Z,101550.31
2022-09-18T12:45:42.868Z,101549.88
2022-09-18T12:50:59.185Z,101551.00
2022-09-18T12:56:23.954Z,101547.41
2022-09-18T13:01:33.098Z,101538.97
2022-09-18T13:06:44.577Z,101537.66
2022-09-18T13:11:53.672Z,101540.38
2022-09-18T13:17:04.234Z,101543.06
2022-09-18T13:22:12.559Z,101533.03
2022-09-18T13:27:19.718Z,101531.09
2022-09-18T13:32:25.409Z,101552.75
2022-09-18T13:37:30.960Z,101599.53
2022-09-18T13:42:37.881Z,101591.41
2022-09-18T13:48:02.312Z,101578.28
2022-09-18T13:53:09.381Z,101571.38
2022-09-18T13:58:48.087Z,101564.69
2022-09-18T14:03:51.054Z,101566.88
2022-09-18T14:08:54.865Z,101567.34
2022-09-18T14:13:59.965Z,101549.09
2022-09-18T14:19:09.379Z,101548.91
2022-09-18T14:24:25.397Z,101543.00
2022-09-18T14:29:33.808Z,101540.88
2022-09-18T14:34:40.009Z,101544.59
2022-09-18T14:39:43.303Z,101539.19
2022-09-18T14:44:52.798Z,101548.72
2022-09-18T14:49:56.091Z,101544.31
2022-09-18T14:55:01.791Z,101550.69
2022-09-18T15:00:10.747Z,101546.69
2022-09-18T15:05:13.914Z,101543.81
2022-09-18T15:10:18.582Z,101553.81
2022-09-18T15:15:30.431Z,101546.03
2022-09-18T15:20:33.443Z,101537.91
2022-09-18T15:25:41.243Z,101521.84
2022-09-18T15:30:46.917Z,101515.59
2022-09-18T15:35:53.590Z,101513.75
2022-09-18T15:40:56.791Z,101516.31
2022-09-18T15:46:05.084Z,101524.16
2022-09-18T15:51:14.364Z,101523.97
2022-09-18T15:56:22.038Z,101530.88
2022-09-18T16:01:35.428Z,101535.22
2022-09-18T16:06:49.521Z,101546.59
2022-09-18T16:11:53.355Z,101545.34
2022-09-18T16:16:57.974Z,101573.88
2022-09-18T16:22:10.442Z,101575.13
2022-09-18T16:27:16.818Z,101587.47
2022-09-18T16:32:21.785Z,101588.59
2022-09-18T16:37:24.717Z,101590.13
2022-09-18T16:42:27.637Z,101597.06
2022-09-18T16:47:31.939Z,101610.75
2022-09-18T16:52:34.916Z,101605.94
2022-09-18T16:57:38.813Z,101608.00
2022-09-18T17:02:43.396Z,101612.00
2022-09-18T17:07:46.825Z,101621.38
2022-09-18T17:12:49.952Z,101631.31
2022-09-18T17:17:54.671Z,101638.09
2022-09-18T17:22:57.959Z,101648.63
2022-09-18T17:28:01.378Z,101644.94
2022-09-18T17:33:05.945Z,101640.63
2022-09-18T17:38:08.996Z,101642.00
2022-09-18T17:43:11.970Z,101628.81
2022-09-18T17:48:16.436Z,101644.94
2022-09-18T17:53:20.439Z,101643.34
2022-09-18T17:58:23.381Z,101635.63
2022-09-18T18:03:29.073Z,101640.38
2022-09-18T18:08:32.487Z,101644.22
2022-09-18T18:13:37.460Z,101645.63
2022-09-18T18:18:42.379Z,101646.16
2022-09-18T18:23:45.649Z,101655.91
2022-09-18T18:28:49.757Z,101662.88
2022-09-18T18:33:55.718Z,101660.78
2022-09-18T18:39:00.699Z,101672.00
2022-09-18T18:44:05.689Z,101676.41
2022-09-18T18:49:16.101Z,101692.53
2022-09-18T18:54:21.387Z,101692.38
2022-09-18T18:59:25.605Z,101709.03
2022-09-18T19:04:30.243Z,101704.53
2022-09-18T19:09:33.791Z,101709.63
2022-09-18T19:14:38.096Z,101722.22
2022-09-18T19:19:43.320Z,101728.06
2022-09-18T19:24:46.694Z,101730.84
2022-09-18T19:29:50.166Z,101747.44
2022-09-18T19:34:54.780Z,101739.81
2022-09-18T19:39:58.064Z,101745.88
2022-09-18T19:45:04.558Z,101748.25
2022-09-18T19:50:20.520Z,101740.97
2022-09-18T19:55:24.795Z,101740.72
2022-09-18T20:00:30.646Z,101743.44
2022-09-18T20:05:37.113Z,101753.19
2022-09-18T20:10:41.739Z,101751.13
2022-09-18T20:15:45.518Z,101754.75
2022-09-18T20:20:51.430Z,101759.84
2022-09-18T20:25:54.328Z,101769.28
2022-09-18T20:30:57.242Z,101764.66
2022-09-18T20:36:08.749Z,101755.59
2022-09-18T20:41:13.954Z,101771.22
2022-09-18T20:46:18.143Z,101777.03
2022-09-18T20:51:24.284Z,101786.16
2022-09-18T20:56:29.671Z,101790.16
2022-09-18T21:01:39.936Z,101790.88
2022-09-18T21:06:46.235Z,101794.50
2022-09-18T21:11:49.293Z,101789.34
2022-09-18T21:16:55.518Z,101792.94
2022-09-18T21:21:59.900Z,101799.84
2022-09-18T21:27:02.839Z,101802.47
2022-09-18T21:32:06.352Z,101806.88
2022-09-18T21:37:12.251Z,101811.47
2022-09-18T21:42:17.143Z,101810.50
2022-09-18T21:47:21.358Z,101821.06
2022-09-18T21:52:25.779Z,101817.63
2022-09-18T21:57:29.211Z,101829.69
2022-09-18T22:02:32.385Z,101829.03
2022-09-18T22:07:37.275Z,101828.13
2022-09-18T22:12:41.286Z,101830.03
2022-09-18T22:17:47.082Z,101823.69
2022-09-18T22:22:51.332Z,101836.25
2022-09-18T22:27:54.428Z,101838.81
2022-09-18T22:32:57.613Z,101846.56
2022-09-18T22:38:02.030Z,101844.63
2022-09-18T22:43:05.184Z,101852.31
2022-09-18T22:48:08.185Z,101851.28
2022-09-18T22:53:13.983Z,101851.28
2022-09-18T22:58:16.948Z,101859.91
2022-09-18T23:03:19.895Z,101855.38
2022-09-18T23:08:24.689Z,101855.22
2022-09-18T23:13:27.636Z,101858.84
2022-09-18T23:18:30.583Z,101855.72
2022-09-18T23:23:37.136Z,101862.81
2022-09-18T23:28:45.165Z,101865.44
2022-09-18T23:33:49.778Z,101863.72
2022-09-18T23:38:58.047Z,101866.41
2022-09-18T23:44:02.304Z,101868.84
2022-09-18T23:49:07.019Z,101868.69
2022-09-18T23:54:18.155Z,101874.41
2022-09-18T23:59:23.490Z,101875.22
